createdAt,value
2023-04-21T00:00:55.864Z,7.21
2023-04-21T00:03:24.435Z,7.30
2023-04-21T00:05:51.648Z,7.36
2023-04-21T00:08:18.965Z,7.29
2023-04-21T00:10:46.677Z,7.36
2023-04-21T00:13:13.687Z,7.47
2023-04-21T00:15:40.245Z,7.28
2023-04-21T00:18:07.037Z,7.28
2023-04-21T00:20:33.534Z,7.21
2023-04-21T00:23:00.050Z,7.22
2023-04-21T00:25:26.587Z,7.22
2023-04-21T00:27:53.010Z,7.16
2023-04-21T00:30:19.452Z,7.19
2023-04-21T00:32:46.345Z,7.19
2023-04-21T00:35:13.353Z,7.30
2023-04-21T00:37:41.449Z,7.43
2023-04-21T00:40:08.639Z,7.42
2023-04-21T00:42:35.053Z,7.45
2023-04-21T00:45:01.430Z,7.43
2023-04-21T00:47:27.841Z,7.57
2023-04-21T00:49:54.803Z,7.47
2023-04-21T00:52:21.426Z,7.51
2023-04-21T00:54:47.975Z,7.25
2023-04-21T00:57:15.112Z,7.09
2023-04-21T00:59:41.853Z,7.09
2023-04-21T01:02:08.290Z,7.07
2023-04-21T01:04:39.525Z,7.13
2023-04-21T01:07:07.504Z,7.30
2023-04-21T01:09:34.458Z,7.16
2023-04-21T01:12:05.895Z,7.13
2023-04-21T01:14:34.664Z,7.18
2023-04-21T01:17:01.136Z,7.38
2023-04-21T01:19:31.452Z,7.39
2023-04-21T01:22:00.499Z,7.43
2023-04-21T01:24:40.906Z,7.51
2023-04-21T01:27:14.855Z,7.47
2023-04-21T01:29:42.811Z,7.23
2023-04-21T01:32:18.330Z,7.31
2023-04-21T01:34:46.155Z,7.36
2023-04-21T01:37:16.359Z,7.40
2023-04-21T01:39:45.371Z,7.38
2023-04-21T01:42:12.529Z,7.49
2023-04-21T01:44:39.198Z,7.41
2023-04-21T01:47:06.260Z,7.36
2023-04-21T01:49:32.563Z,7.40
2023-04-21T01:51:58.876Z,7.26
2023-04-21T01:54:25.229Z,7.35
2023-04-21T01:56:52.244Z,7.42
2023-04-21T01:59:18.876Z,7.32
2023-04-21T02:01:45.609Z,7.35
2023-04-21T02:04:12.014Z,7.19
2023-04-21T02:06:38.545Z,7.32
2023-04-21T02:09:06.698Z,7.34
2023-04-21T02:11:33.541Z,7.41
2023-04-21T02:13:59.844Z,7.52
2023-04-21T02:16:26.362Z,7.31
2023-04-21T02:18:53.963Z,7.25
2023-04-21T02:21:24.267Z,7.23
2023-04-21T02:23:51.310Z,7.24
2023-04-21T02:26:18.889Z,7.19
2023-04-21T02:28:45.694Z,7.19
2023-04-21T02:31:15.335Z,7.23
2023-04-21T02:33:41.755Z,7.15
2023-04-21T02:36:08.342Z,7.24
2023-04-21T02:38:34.788Z,7.18
2023-04-21T02:41:01.208Z,7.10
2023-04-21T02:43:27.614Z,7.19
2023-04-21T02:45:55.313Z,6.96
2023-04-21T02:48:23.069Z,7.02
2023-04-21T02:50:52.877Z,7.09
2023-04-21T02:53:20.278Z,7.15
2023-04-21T02:55:46.619Z,7.15
2023-04-21T02:58:13.337Z,7.18
2023-04-21T03:00:41.383Z,7.25
2023-04-21T03:03:08.183Z,7.01
2023-04-21T03:05:34.908Z,7.15
2023-04-21T03:08:01.234Z,7.09
2023-04-21T03:10:27.671Z,7.14
2023-04-21T03:12:56.161Z,7.13
2023-04-21T03:15:23.778Z,6.97
2023-04-21T03:17:50.250Z,6.95
2023-04-21T03:20:16.966Z,7.09
2023-04-21T03:22:43.397Z,7.16
2023-04-21T03:25:10.151Z,7.03
2023-04-21T03:27:36.459Z,6.86
2023-04-21T03:30:03.842Z,6.92
2023-04-21T03:32:30.532Z,6.98
2023-04-21T03:34:56.975Z,6.87
2023-04-21T03:37:24.340Z,6.89
2023-04-21T03:39:50.719Z,6.76
2023-04-21T03:42:18.664Z,6.89
2023-04-21T03:44:45.019Z,6.94
2023-04-21T03:47:11.363Z,6.92
2023-04-21T03:49:37.677Z,6.89
2023-04-21T03:52:04.272Z,6.89
2023-04-21T03:54:30.732Z,6.90
2023-04-21T03:56:57.088Z,6.70
2023-04-21T03:59:23.370Z,6.69
2023-04-21T04:01:49.702Z,6.93
2023-04-21T04:04:16.440Z,7.09
2023-04-21T04:06:42.939Z,7.10
2023-04-21T04:09:09.322Z,7.02
2023-04-21T04:11:35.952Z,7.17
2023-04-21T04:14:02.297Z,6.98
2023-04-21T04:16:28.983Z,7.03
2023-04-21T04:18:55.693Z,7.04
2023-04-21T04:21:21.986Z,6.66
2023-04-21T04:23:51.578Z,6.69
2023-04-21T04:26:18.589Z,6.69
2023-04-21T04:28:45.071Z,6.51
2023-04-21T04:31:13.276Z,6.63
2023-04-21T04:33:43.358Z,6.62
2023-04-21T04:36:11.782Z,6.57
2023-04-21T04:38:38.070Z,6.68
2023-04-21T04:41:04.960Z,6.65
2023-04-21T04:43:36.729Z,6.82
2023-04-21T04:46:03.447Z,6.52
2023-04-21T04:48:29.793Z,6.44
2023-04-21T04:50:56.098Z,6.44
2023-04-21T04:53:22.519Z,6.40
2023-04-21T04:55:48.799Z,6.45
2023-04-21T04:58:15.423Z,6.55
2023-04-21T05:00:41.715Z,6.46
2023-04-21T05:03:08.150Z,6.18
2023-04-21T05:05:34.462Z,6.42
2023-04-21T05:08:00.840Z,6.33
2023-04-21T05:10:27.107Z,6.41
2023-04-21T05:12:54.236Z,6.26
2023-04-21T05:15:22.384Z,6.27
2023-04-21T05:17:49.010Z,6.36
2023-04-21T05:20:15.366Z,6.44
2023-04-21T05:22:41.726Z,6.42
2023-04-21T05:25:11.787Z,6.58
2023-04-21T05:27:38.191Z,6.26
2023-04-21T05:30:04.816Z,6.44
2023-04-21T05:32:31.225Z,6.53
2023-04-21T05:34:57.647Z,6.34
2023-04-21T05:37:23.945Z,6.27
2023-04-21T05:39:51.208Z,6.29
2023-04-21T05:42:18.221Z,6.13
2023-04-21T05:44:44.552Z,6.20
2023-04-21T05:47:10.916Z,6.20
2023-04-21T05:49:37.218Z,6.28
2023-04-21T05:52:03.691Z,6.22
2023-04-21T05:54:30.063Z,6.03
2023-04-21T05:56:56.843Z,6.19
2023-04-21T05:59:23.112Z,6.17
2023-04-21T06:01:49.860Z,6.25
2023-04-21T06:04:16.494Z,6.18
2023-04-21T06:06:44.188Z,6.10
2023-04-21T06:09:10.738Z,6.05
2023-04-21T06:11:37.112Z,6.10
2023-04-21T06:14:03.405Z,6.01
2023-04-21T06:16:32.354Z,6.08
2023-04-21T06:18:58.954Z,6.09
2023-04-21T06:21:25.415Z,6.05
2023-04-21T06:23:51.776Z,6.05
2023-04-21T06:26:18.156Z,6.12
2023-04-21T06:28:44.457Z,6.08
2023-04-21T06:31:15.105Z,5.91
2023-04-21T06:33:41.478Z,6.09
2023-04-21T06:36:08.074Z,6.27
2023-04-21T06:38:34.386Z,6.10
2023-04-21T06:41:00.972Z,6.11
2023-04-21T06:43:27.314Z,6.16
2023-04-21T06:45:53.648Z,6.23
2023-04-21T06:48:19.938Z,6.21
2023-04-21T06:50:46.432Z,6.39
2023-04-21T06:53:12.855Z,6.30
2023-04-21T06:55:39.248Z,6.44
2023-04-21T06:58:05.691Z,6.34
2023-04-21T07:00:32.055Z,6.40
2023-04-21T07:02:58.443Z,6.65
2023-04-21T07:05:25.165Z,6.77
2023-04-21T07:07:51.560Z,6.63
2023-04-21T07:10:19.724Z,6.67
2023-04-21T07:12:46.184Z,6.72
2023-04-21T07:15:12.641Z,6.68
2023-04-21T07:17:39.027Z,6.69
2023-04-21T07:20:06.011Z,6.50
2023-04-21T07:22:32.318Z,6.41
2023-04-21T07:24:58.752Z,6.78
2023-04-21T07:27:25.232Z,6.82
2023-04-21T07:29:51.541Z,6.72
2023-04-21T07:32:17.830Z,6.58
2023-04-21T07:34:46.798Z,6.81
2023-04-21T07:37:13.100Z,6.79
2023-04-21T07:39:39.397Z,6.93
2023-04-21T07:42:08.061Z,6.97
2023-04-21T07:44:34.782Z,7.00
2023-04-21T07:47:01.210Z,6.96
2023-04-21T07:49:27.767Z,6.96
2023-04-21T07:51:54.107Z,6.81
2023-04-21T07:54:20.511Z,6.84
2023-04-21T07:56:46.816Z,7.10
2023-04-21T07:59:13.137Z,7.07
2023-04-21T08:01:39.477Z,7.19
2023-04-21T08:04:06.557Z,7.16
2023-04-21T08:06:33.483Z,7.14
2023-04-21T08:08:59.998Z,7.23
2023-04-21T08:11:27.929Z,7.25
2023-04-21T08:13:54.362Z,7.40
2023-04-21T08:16:20.807Z,7.36
2023-04-21T08:18:47.203Z,7.40
2023-04-21T08:21:14.758Z,7.45
2023-04-21T08:23:41.079Z,7.53
2023-04-21T08:26:09.278Z,7.53
2023-04-21T08:28:35.642Z,7.66
2023-04-21T08:31:02.279Z,7.87
2023-04-21T08:33:28.743Z,7.99
2023-04-21T08:36:05.477Z,8.09
2023-04-21T08:38:32.143Z,8.18
2023-04-21T08:40:59.868Z,8.15
2023-04-21T08:43:26.678Z,8.40
2023-04-21T08:45:54.315Z,8.55
2023-04-21T08:48:23.633Z,8.78
2023-04-21T08:50:51.106Z,9.04
2023-04-21T08:53:17.997Z,8.98
2023-04-21T08:55:47.815Z,9.00
2023-04-21T08:58:15.750Z,8.94
2023-04-21T09:00:42.109Z,8.90
2023-04-21T09:03:19.246Z,8.93
2023-04-21T09:06:03.242Z,9.04
2023-04-21T09:08:30.345Z,9.05
2023-04-21T09:10:57.863Z,9.03
2023-04-21T09:13:32.535Z,9.16
2023-04-21T09:15:59.514Z,9.41
2023-04-21T09:18:28.238Z,9.67
2023-04-21T09:21:06.807Z,9.81
2023-04-21T09:23:40.787Z,9.85
2023-04-21T09:26:07.492Z,9.72
2023-04-21T09:28:33.886Z,9.76
2023-04-21T09:31:00.255Z,9.78
2023-04-21T09:33:32.297Z,9.80
2023-04-21T09:36:02.145Z,9.98
2023-04-21T09:38:28.471Z,10.19
2023-04-21T09:40:58.901Z,10.10
2023-04-21T09:43:25.924Z,10.20
2023-04-21T09:45:54.282Z,10.26
2023-04-21T09:48:24.302Z,10.41
2023-04-21T09:51:24.250Z,10.52
2023-04-21T09:53:40.336Z,10.57
2023-04-21T09:56:12.156Z,10.75
2023-04-21T09:58:52.333Z,11.12
2023-04-21T10:01:19.532Z,11.41
2023-04-21T10:03:48.553Z,11.67
2023-04-21T10:06:15.555Z,11.89
2023-04-21T10:08:43.420Z,12.07
2023-04-21T10:11:10.556Z,12.03
2023-04-21T10:13:38.388Z,12.06
2023-04-21T10:16:11.490Z,12.07
2023-04-21T10:18:42.492Z,12.13
2023-04-21T10:21:10.660Z,12.50
2023-04-21T10:23:45.332Z,12.95
2023-04-21T10:26:24.039Z,13.41
2023-04-21T10:28:56.301Z,13.76
2023-04-21T10:31:23.933Z,13.95
2023-04-21T10:34:08.653Z,14.22
2023-04-21T10:36:42.852Z,14.55
2023-04-21T10:39:12.848Z,14.64
2023-04-21T10:41:39.253Z,14.80
2023-04-21T10:44:13.403Z,14.63
2023-04-21T10:46:50.634Z,14.96
2023-04-21T10:49:40.586Z,15.41
2023-04-21T10:52:09.134Z,15.40
2023-04-21T10:55:06.556Z,15.44
2023-04-21T10:57:34.358Z,15.45
2023-04-21T11:00:00.981Z,15.68
2023-04-21T11:02:27.522Z,15.28
2023-04-21T11:04:54.432Z,15.27
2023-04-21T11:07:25.220Z,14.91
2023-04-21T11:10:07.954Z,15.23
2023-04-21T11:12:38.192Z,15.72
2023-04-21T11:15:07.553Z,15.97
2023-04-21T11:17:34.806Z,16.12
2023-04-21T11:20:02.090Z,15.75
2023-04-21T11:22:28.401Z,15.43
2023-04-21T11:24:56.603Z,15.67
2023-04-21T11:27:23.574Z,15.79
2023-04-21T11:29:50.804Z,15.76
2023-04-21T11:32:18.017Z,15.36
2023-04-21T11:34:45.066Z,15.20
2023-04-21T11:37:23.902Z,15.86
2023-04-21T11:39:50.324Z,16.16
2023-04-21T11:42:22.686Z,16.38
2023-04-21T11:44:49.099Z,16.35
2023-04-21T11:47:26.680Z,16.72
2023-04-21T11:49:55.206Z,17.18
2023-04-21T11:52:33.113Z,17.56
2023-04-21T11:55:05.752Z,17.61
2023-04-21T11:57:33.650Z,17.33
2023-04-21T12:00:02.040Z,17.64
2023-04-21T12:02:32.412Z,17.92
2023-04-21T12:05:01.214Z,17.33
2023-04-21T12:07:29.768Z,16.80
2023-04-21T12:09:56.140Z,16.34
2023-04-21T12:12:24.349Z,16.16
2023-04-21T12:14:51.655Z,15.79
2023-04-21T12:17:18.095Z,15.84
2023-04-21T12:19:44.607Z,15.52
2023-04-21T12:22:13.229Z,15.78
2023-04-21T12:24:42.762Z,15.97
2023-04-21T12:27:09.115Z,15.93
2023-04-21T12:29:37.338Z,16.35
2023-04-21T12:32:09.953Z,17.05
2023-04-21T12:34:36.535Z,17.48
2023-04-21T12:37:03.497Z,17.93
2023-04-21T12:39:30.373Z,18.18
2023-04-21T12:41:57.601Z,18.28
2023-04-21T12:44:23.980Z,17.76
2023-04-21T12:46:50.565Z,17.42
2023-04-21T12:49:17.522Z,17.24
2023-04-21T12:51:44.497Z,16.77
2023-04-21T12:54:12.326Z,16.87
2023-04-21T12:56:42.245Z,16.79
2023-04-21T12:59:10.356Z,16.91
2023-04-21T13:01:38.183Z,17.35
2023-04-21T13:04:05.736Z,17.80
2023-04-21T13:06:33.079Z,18.07
2023-04-21T13:08:59.811Z,18.28
2023-04-21T13:11:26.147Z,18.37
2023-04-21T13:13:52.417Z,18.24
2023-04-21T13:16:18.769Z,18.36
2023-04-21T13:18:46.325Z,17.82
2023-04-21T13:21:13.179Z,17.83
2023-04-21T13:23:39.862Z,17.69
2023-04-21T13:26:07.319Z,17.53
2023-04-21T13:28:33.741Z,17.27
2023-04-21T13:31:00.221Z,17.24
2023-04-21T13:33:26.752Z,17.63
2023-04-21T13:35:53.310Z,17.37
2023-04-21T13:38:20.686Z,17.04
2023-04-21T13:40:48.816Z,16.91
2023-04-21T13:43:15.380Z,17.09
2023-04-21T13:45:41.815Z,17.34
2023-04-21T13:48:08.175Z,17.59
2023-04-21T13:50:34.563Z,18.05
2023-04-21T13:53:00.973Z,18.27
2023-04-21T13:55:27.312Z,18.23
2023-04-21T13:57:53.717Z,18.17
2023-04-21T14:00:20.229Z,18.38
2023-04-21T14:02:47.251Z,18.05
2023-04-21T14:05:13.895Z,17.99
2023-04-21T14:07:40.320Z,17.67
2023-04-21T14:10:07.310Z,17.92
2023-04-21T14:12:33.625Z,18.00
2023-04-21T14:15:00.054Z,18.01
2023-04-21T14:17:26.889Z,17.64
2023-04-21T14:19:55.251Z,17.62
2023-04-21T14:22:21.973Z,17.54
2023-04-21T14:24:48.391Z,17.59
2023-04-21T14:27:14.777Z,17.50
2023-04-21T14:29:41.160Z,17.35
2023-04-21T14:32:07.609Z,17.35
2023-04-21T14:34:34.199Z,17.44
2023-04-21T14:37:00.890Z,17.38
2023-04-21T14:39:27.416Z,17.29
2023-04-21T14:41:54.276Z,17.09
2023-04-21T14:44:20.673Z,17.09
2023-04-21T14:46:57.053Z,17.00
2023-04-21T14:49:27.954Z,17.00
2023-04-21T14:51:54.513Z,16.90
2023-04-21T14:54:21.914Z,16.87
2023-04-21T14:56:48.259Z,16.70
2023-04-21T14:59:14.584Z,16.60
2023-04-21T15:01:41.331Z,16.65
2023-04-21T15:04:08.146Z,16.55
2023-04-21T15:06:34.541Z,16.44
2023-04-21T15:09:00.861Z,16.44
2023-04-21T15:11:27.245Z,16.41
2023-04-21T15:13:53.673Z,16.33
2023-04-21T15:16:20.098Z,16.31
2023-04-21T15:18:46.536Z,16.40
2023-04-21T15:21:13.168Z,16.36
2023-04-21T15:23:39.424Z,16.31
2023-04-21T15:26:05.813Z,16.30
2023-04-21T15:28:32.676Z,16.31
2023-04-21T15:30:59.043Z,16.31
2023-04-21T15:33:25.594Z,16.24
2023-04-21T15:35:52.167Z,16.23
2023-04-21T15:38:18.448Z,16.16
2023-04-21T15:40:59.789Z,16.12
2023-04-21T15:43:27.301Z,16.06
2023-04-21T15:45:53.695Z,16.04
2023-04-21T15:48:21.964Z,16.07
2023-04-21T15:50:50.830Z,16.02
2023-04-21T15:53:19.814Z,16.03
2023-04-21T15:55:46.528Z,16.01
2023-04-21T15:58:13.512Z,15.96
2023-04-21T16:00:41.797Z,15.94
2023-04-21T16:03:09.154Z,15.95
2023-04-21T16:05:36.181Z,15.86
2023-04-21T16:08:02.626Z,15.94
2023-04-21T16:10:28.995Z,15.91
2023-04-21T16:12:55.688Z,15.89
2023-04-21T16:15:24.674Z,15.84
2023-04-21T16:17:51.912Z,15.87
2023-04-21T16:20:18.476Z,15.76
2023-04-21T16:22:45.092Z,15.83
2023-04-21T16:25:16.107Z,15.82
2023-04-21T16:27:42.574Z,15.81
2023-04-21T16:30:09.278Z,15.76
2023-04-21T16:32:36.024Z,15.79
2023-04-21T16:35:07.623Z,15.77
2023-04-21T16:37:35.800Z,15.78
2023-04-21T16:40:02.442Z,15.75
2023-04-21T16:42:28.751Z,15.73
2023-04-21T16:44:58.882Z,15.72
2023-04-21T16:47:25.611Z,15.73
2023-04-21T16:49:52.015Z,15.71
2023-04-21T16:52:18.378Z,15.71
2023-04-21T16:54:44.652Z,15.67
2023-04-21T16:57:10.980Z,15.69
2023-04-21T16:59:37.334Z,15.64
2023-04-21T17:02:03.742Z,15.62
2023-04-21T17:04:30.185Z,15.61
2023-04-21T17:06:56.592Z,15.65
2023-04-21T17:09:22.927Z,15.58
2023-04-21T17:11:49.248Z,15.49
2023-04-21T17:14:15.793Z,15.46
2023-04-21T17:16:42.345Z,15.48
2023-04-21T17:19:08.720Z,15.51
2023-04-21T17:21:35.761Z,15.45
2023-04-21T17:24:02.069Z,15.39
2023-04-21T17:26:28.421Z,15.42
2023-04-21T17:28:55.301Z,15.38
2023-04-21T17:31:21.677Z,15.32
2023-04-21T17:33:48.068Z,15.35
2023-04-21T17:36:16.635Z,15.29
2023-04-21T17:38:43.181Z,15.32
2023-04-21T17:41:09.737Z,15.29
2023-04-21T17:43:36.050Z,15.26
2023-04-21T17:46:02.472Z,15.26
2023-04-21T17:48:28.858Z,15.21
2023-04-21T17:50:55.205Z,15.19
2023-04-21T17:53:21.552Z,15.11
2023-04-21T17:55:47.895Z,15.10
2023-04-21T17:58:14.293Z,15.08
2023-04-21T18:00:40.718Z,14.95
2023-04-21T18:03:07.455Z,14.97
2023-04-21T18:05:33.952Z,14.97
2023-04-21T18:08:00.703Z,15.00
2023-04-21T18:10:29.490Z,14.89
2023-04-21T18:12:56.308Z,14.97
2023-04-21T18:15:22.758Z,14.96
2023-04-21T18:17:49.209Z,14.44
2023-04-21T18:20:15.674Z,14.30
2023-04-21T18:22:43.572Z,13.99
2023-04-21T18:25:11.642Z,13.69
2023-04-21T18:27:39.250Z,13.57
2023-04-21T18:30:07.354Z,13.41
2023-04-21T18:32:34.655Z,13.40
2023-04-21T18:35:01.256Z,13.45
2023-04-21T18:37:27.560Z,13.56
2023-04-21T18:39:54.028Z,13.75
2023-04-21T18:42:20.486Z,13.55
2023-04-21T18:44:47.254Z,13.30
2023-04-21T18:47:15.228Z,13.16
2023-04-21T18:49:42.103Z,13.22
2023-04-21T18:52:09.248Z,13.19
2023-04-21T18:54:35.822Z,13.25
2023-04-21T18:57:03.733Z,13.16
2023-04-21T18:59:30.258Z,13.20
2023-04-21T19:01:56.666Z,13.23
2023-04-21T19:04:23.219Z,13.23
2023-04-21T19:06:50.208Z,13.19
2023-04-21T19:09:17.031Z,13.04
2023-04-21T19:11:43.393Z,12.78
2023-04-21T19:14:09.833Z,12.84
2023-04-21T19:16:36.355Z,12.86
2023-04-21T19:19:03.887Z,12.80
2023-04-21T19:21:30.362Z,12.95
2023-04-21T19:23:57.907Z,12.94
2023-04-21T19:26:24.737Z,13.00
2023-04-21T19:28:51.118Z,12.67
2023-04-21T19:31:21.566Z,12.64
2023-04-21T19:33:49.356Z,12.61
2023-04-21T19:36:15.813Z,12.62
2023-04-21T19:38:42.113Z,12.31
2023-04-21T19:41:08.582Z,12.41
2023-04-21T19:43:34.866Z,12.41
2023-04-21T19:46:01.339Z,12.29
2023-04-21T19:48:27.999Z,12.21
2023-04-21T19:50:54.358Z,12.00
2023-04-21T19:53:20.772Z,12.17
2023-04-21T19:55:48.682Z,12.04
2023-04-21T19:58:28.140Z,12.06
2023-04-21T20:01:03.593Z,12.17
2023-04-21T20:03:31.271Z,11.96
2023-04-21T20:05:57.732Z,11.87
2023-04-21T20:08:24.101Z,11.85
2023-04-21T20:10:50.506Z,11.85
2023-04-21T20:13:16.868Z,11.50
2023-04-21T20:15:43.289Z,11.67
2023-04-21T20:18:09.794Z,11.49
2023-04-21T20:20:36.715Z,11.40
2023-04-21T20:23:03.232Z,11.30
2023-04-21T20:25:29.784Z,11.52
2023-04-21T20:27:56.947Z,11.39
2023-04-21T20:30:24.368Z,11.46
2023-04-21T20:32:50.864Z,11.23
2023-04-21T20:35:17.320Z,11.30
2023-04-21T20:37:44.330Z,11.28
2023-04-21T20:40:11.723Z,11.43
2023-04-21T20:42:38.820Z,11.38
2023-04-21T20:45:06.420Z,11.30
2023-04-21T20:47:33.811Z,11.28
2023-04-21T20:50:00.484Z,11.26
2023-04-21T20:52:26.929Z,11.16
2023-04-21T20:54:53.256Z,11.20
2023-04-21T20:57:19.638Z,11.04
2023-04-21T20:59:46.002Z,11.02
2023-04-21T21:02:12.450Z,10.84
2023-04-21T21:04:39.556Z,10.73
2023-04-21T21:07:06.316Z,10.67
2023-04-21T21:09:32.718Z,10.51
2023-04-21T21:11:59.173Z,10.68
2023-04-21T21:14:25.564Z,10.65
2023-04-21T21:16:54.445Z,10.73
2023-04-21T21:19:21.849Z,10.65
2023-04-21T21:21:48.192Z,10.58
2023-04-21T21:24:14.498Z,10.43
2023-04-21T21:26:42.691Z,10.31
2023-04-21T21:29:09.308Z,10.12
2023-04-21T21:31:35.685Z,10.18
2023-04-21T21:34:03.799Z,10.08
2023-04-21T21:36:31.650Z,9.87
2023-04-21T21:38:58.060Z,10.00
2023-04-21T21:41:24.390Z,10.12
2023-04-21T21:43:50.725Z,10.21
2023-04-21T21:46:18.427Z,10.16
2023-04-21T21:48:44.759Z,10.24
2023-04-21T21:51:11.189Z,10.25
2023-04-21T21:53:37.498Z,10.26
2023-04-21T21:56:03.981Z,10.13
2023-04-21T21:58:30.730Z,10.13
2023-04-21T22:00:57.004Z,10.00
2023-04-21T22:03:23.504Z,10.12
2023-04-21T22:05:49.892Z,10.20
2023-04-21T22:08:16.317Z,10.22
2023-04-21T22:10:43.371Z,10.15
2023-04-21T22:13:10.536Z,10.36
2023-04-21T22:15:37.320Z,10.32
2023-04-21T22:18:03.952Z,9.93
2023-04-21T22:20:30.751Z,10.02
2023-04-21T22:22:57.072Z,10.21
2023-04-21T22:25:26.816Z,10.30
2023-04-21T22:27:56.875Z,10.21
2023-04-21T22:30:23.528Z,10.32
2023-04-21T22:32:50.058Z,10.12
2023-04-21T22:35:16.730Z,9.94
2023-04-21T22:37:43.014Z,10.13
2023-04-21T22:40:09.898Z,10.21
2023-04-21T22:42:36.735Z,10.19
2023-04-21T22:45:05.112Z,10.00
2023-04-21T22:47:33.308Z,9.80
2023-04-21T22:49:59.969Z,9.76
2023-04-21T22:52:26.834Z,9.90
2023-04-21T22:54:53.590Z,9.99
2023-04-21T22:57:20.873Z,10.00
2023-04-21T22:59:47.376Z,10.02
2023-04-21T23:02:13.909Z,9.93
2023-04-21T23:04:40.312Z,9.82
2023-04-21T23:07:06.624Z,9.88
2023-04-21T23:09:32.965Z,9.91
2023-04-21T23:11:59.520Z,10.01
2023-04-21T23:14:26.053Z,10.02
2023-04-21T23:16:52.460Z,9.92
2023-04-21T23:19:18.789Z,9.89
2023-04-21T23:21:46.318Z,9.74
2023-04-21T23:24:12.778Z,9.96
2023-04-21T23:26:39.122Z,9.69
2023-04-21T23:29:05.850Z,9.80
2023-04-21T23:31:32.289Z,9.79
2023-04-21T23:33:59.966Z,9.72
2023-04-21T23:36:27.041Z,9.91
2023-04-21T23:38:53.744Z,9.86
2023-04-21T23:41:20.659Z,9.67
2023-04-21T23:43:46.953Z,9.59
2023-04-21T23:46:13.294Z,9.79
2023-04-21T23:48:39.656Z,9.75
2023-04-21T23:51:06.355Z,9.70
2023-04-21T23:53:33.045Z,9.89
2023-04-21T23:55:59.425Z,9.81
2023-04-21T23:58:25.809Z,9.77
